Terminal Aerodrome Forecast
Issued by NWS Denver/Boulder, CO

Home | Current Version | Previous Version | Text Only | Print | Product List | Glossary On
Versions: 1 2 3 4 5 6 7 8 9 10 11 12 13 14 15 16 17 18 19 20 21 22 23 24 25 26 27 28 29 30 31 32 33 34 35 36 37 38 39 40 41 42 43 44 45 46 47 48 49 50
000
FTUS45 KBOU 270212 AAA
TAFDEN
TAF AMD
KDEN 270212Z 2702/2806 01005KT 5SM -SN SCT035 OVC050
      TEMPO 2702/2704 2SM -SN BR OVC015
     FM270400 33005KT P6SM VCSH SCT015 BKN030 OVC060
     FM270700 24006KT P6SM SCT025 BKN040 BKN080
     FM271000 21007KT P6SM FEW040 SCT080
     FM271400 VRB04KT P6SM FEW200
     FM271900 16007KT P6SM FEW200
     FM280200 22007KT P6SM SKC=

USA.gov is the U.S. government's official web portal to all federal, state and local government web resources and services.